sensor_id;sensor_type;location;lat;lon;timestamp;temperature;humidity
49531;DHT22;38889;30.622;104.088;2022-07-23T00:01:02;27.90;59.80
49531;DHT22;38889;30.622;104.088;2022-07-23T00:03:29;27.90;59.80
49531;DHT22;38889;30.622;104.088;2022-07-23T00:05:56;27.90;59.80
49531;DHT22;38889;30.622;104.088;2022-07-23T00:08:24;27.90;59.80
49531;DHT22;38889;30.622;104.088;2022-07-23T00:10:51;27.90;59.80
49531;DHT22;38889;30.622;104.088;2022-07-23T00:13:18;28.00;59.80
49531;DHT22;38889;30.622;104.088;2022-07-23T00:15:45;27.90;59.80
49531;DHT22;38889;30.622;104.088;2022-07-23T00:18:16;27.90;59.80
49531;DHT22;38889;30.622;104.088;2022-07-23T00:20:43;27.40;59.30
49531;DHT22;38889;30.622;104.088;2022-07-23T00:23:10;27.90;59.70
49531;DHT22;38889;30.622;104.088;2022-07-23T00:25:37;27.90;59.60
49531;DHT22;38889;30.622;104.088;2022-07-23T00:28:05;28.00;59.50
49531;DHT22;38889;30.622;104.088;2022-07-23T00:30:32;27.90;59.60
49531;DHT22;38889;30.622;104.088;2022-07-23T00:33:03;28.00;59.80
49531;DHT22;38889;30.622;104.088;2022-07-23T00:35:33;27.90;59.70
49531;DHT22;38889;30.622;104.088;2022-07-23T00:38:01;27.90;60.00
49531;DHT22;38889;30.622;104.088;2022-07-23T00:40:29;27.90;60.20
49531;DHT22;38889;30.622;104.088;2022-07-23T00:42:57;27.90;60.10
49531;DHT22;38889;30.622;104.088;2022-07-23T00:45:25;27.90;60.10
49531;DHT22;38889;30.622;104.088;2022-07-23T00:47:53;27.90;60.20
49531;DHT22;38889;30.622;104.088;2022-07-23T00:50:20;27.90;60.20
49531;DHT22;38889;30.622;104.088;2022-07-23T00:52:47;27.90;60.30
49531;DHT22;38889;30.622;104.088;2022-07-23T00:55:15;27.80;60.40
49531;DHT22;38889;30.622;104.088;2022-07-23T00:57:42;27.80;60.40
49531;DHT22;38889;30.622;104.088;2022-07-23T01:00:13;27.80;60.50
49531;DHT22;38889;30.622;104.088;2022-07-23T01:02:41;27.80;60.60
49531;DHT22;38889;30.622;104.088;2022-07-23T01:05:10;27.80;60.90
49531;DHT22;38889;30.622;104.088;2022-07-23T01:07:37;27.80;60.60
49531;DHT22;38889;30.622;104.088;2022-07-23T01:10:06;27.70;60.80
49531;DHT22;38889;30.622;104.088;2022-07-23T01:12:54;27.70;60.90
49531;DHT22;38889;30.622;104.088;2022-07-23T01:15:21;27.70;60.80
49531;DHT22;38889;30.622;104.088;2022-07-23T01:17:49;27.70;61.00
49531;DHT22;38889;30.622;104.088;2022-07-23T01:20:17;27.70;61.00
49531;DHT22;38889;30.622;104.088;2022-07-23T01:22:45;27.70;61.20
49531;DHT22;38889;30.622;104.088;2022-07-23T01:25:12;27.70;61.10
49531;DHT22;38889;30.622;104.088;2022-07-23T01:27:39;27.70;61.10
49531;DHT22;38889;30.622;104.088;2022-07-23T01:30:07;27.70;60.90
49531;DHT22;38889;30.622;104.088;2022-07-23T01:32:36;27.70;61.10
49531;DHT22;38889;30.622;104.088;2022-07-23T01:35:04;27.80;61.10
49531;DHT22;38889;30.622;104.088;2022-07-23T01:37:32;27.80;61.10
49531;DHT22;38889;30.622;104.088;2022-07-23T01:39:59;27.80;61.00
49531;DHT22;38889;30.622;104.088;2022-07-23T01:42:26;27.80;60.80
49531;DHT22;38889;30.622;104.088;2022-07-23T01:44:54;27.80;60.90
49531;DHT22;38889;30.622;104.088;2022-07-23T01:47:21;27.80;60.90
49531;DHT22;38889;30.622;104.088;2022-07-23T01:49:48;27.80;60.80
49531;DHT22;38889;30.622;104.088;2022-07-23T01:52:15;27.80;60.90
49531;DHT22;38889;30.622;104.088;2022-07-23T01:54:43;27.80;60.60
49531;DHT22;38889;30.622;104.088;2022-07-23T01:57:10;27.90;60.80
49531;DHT22;38889;30.622;104.088;2022-07-23T01:59:37;27.80;60.80
49531;DHT22;38889;30.622;104.088;2022-07-23T02:02:05;27.80;60.70
49531;DHT22;38889;30.622;104.088;2022-07-23T02:04:32;27.90;60.70
49531;DHT22;38889;30.622;104.088;2022-07-23T02:07:03;27.90;60.80
49531;DHT22;38889;30.622;104.088;2022-07-23T02:09:31;27.90;60.60
49531;DHT22;38889;30.622;104.088;2022-07-23T02:12:13;27.90;60.70
49531;DHT22;38889;30.622;104.088;2022-07-23T02:14:40;27.90;60.60
49531;DHT22;38889;30.622;104.088;2022-07-23T02:17:20;27.90;60.50
49531;DHT22;38889;30.622;104.088;2022-07-23T02:19:47;27.90;60.50
49531;DHT22;38889;30.622;104.088;2022-07-23T02:22:14;27.90;60.50
49531;DHT22;38889;30.622;104.088;2022-07-23T02:24:41;27.90;60.50
49531;DHT22;38889;30.622;104.088;2022-07-23T02:27:08;27.90;60.40
49531;DHT22;38889;30.622;104.088;2022-07-23T02:29:35;27.90;60.40
49531;DHT22;38889;30.622;104.088;2022-07-23T02:32:02;27.90;60.30
49531;DHT22;38889;30.622;104.088;2022-07-23T02:34:29;27.90;60.10
49531;DHT22;38889;30.622;104.088;2022-07-23T02:36:57;28.00;60.20
49531;DHT22;38889;30.622;104.088;2022-07-23T02:39:24;28.00;60.00
49531;DHT22;38889;30.622;104.088;2022-07-23T02:41:51;28.00;59.90
49531;DHT22;38889;30.622;104.088;2022-07-23T02:44:18;28.00;59.90
49531;DHT22;38889;30.622;104.088;2022-07-23T02:46:45;28.00;59.80
49531;DHT22;38889;30.622;104.088;2022-07-23T02:49:13;28.00;59.80
49531;DHT22;38889;30.622;104.088;2022-07-23T02:51:40;28.00;59.80
49531;DHT22;38889;30.622;104.088;2022-07-23T02:54:07;28.00;59.90
49531;DHT22;38889;30.622;104.088;2022-07-23T02:56:34;28.10;59.70
49531;DHT22;38889;30.622;104.088;2022-07-23T02:59:01;28.10;59.70
49531;DHT22;38889;30.622;104.088;2022-07-23T03:01:28;28.10;59.60
49531;DHT22;38889;30.622;104.088;2022-07-23T03:03:56;28.10;59.60
49531;DHT22;38889;30.622;104.088;2022-07-23T03:06:23;28.10;59.50
49531;DHT22;38889;30.622;104.088;2022-07-23T03:08:50;28.10;59.40
49531;DHT22;38889;30.622;104.088;2022-07-23T03:11:27;28.10;59.40
49531;DHT22;38889;30.622;104.088;2022-07-23T03:13:55;28.10;59.30
49531;DHT22;38889;30.622;104.088;2022-07-23T03:16:22;28.10;59.30
49531;DHT22;38889;30.622;104.088;2022-07-23T03:18:51;28.10;59.30
49531;DHT22;38889;30.622;104.088;2022-07-23T03:21:19;28.10;59.30
49531;DHT22;38889;30.622;104.088;2022-07-23T03:23:46;28.10;59.30
49531;DHT22;38889;30.622;104.088;2022-07-23T03:26:13;28.10;59.30
49531;DHT22;38889;30.622;104.088;2022-07-23T03:28:41;28.10;59.30
49531;DHT22;38889;30.622;104.088;2022-07-23T03:31:08;28.10;59.20
49531;DHT22;38889;30.622;104.088;2022-07-23T03:33:35;28.10;59.30
49531;DHT22;38889;30.622;104.088;2022-07-23T03:36:02;28.10;59.10
49531;DHT22;38889;30.622;104.088;2022-07-23T03:38:30;28.10;59.10
49531;DHT22;38889;30.622;104.088;2022-07-23T03:40:57;28.10;59.00
49531;DHT22;38889;30.622;104.088;2022-07-23T03:43:24;28.10;59.00
49531;DHT22;38889;30.622;104.088;2022-07-23T03:45:52;27.70;58.70
49531;DHT22;38889;30.622;104.088;2022-07-23T03:48:19;28.10;58.90
49531;DHT22;38889;30.622;104.088;2022-07-23T03:50:47;28.10;58.90
49531;DHT22;38889;30.622;104.088;2022-07-23T03:53:14;28.10;58.90
49531;DHT22;38889;30.622;104.088;2022-07-23T03:55:41;28.10;58.80
49531;DHT22;38889;30.622;104.088;2022-07-23T03:58:09;28.10;58.80
49531;DHT22;38889;30.622;104.088;2022-07-23T04:00:36;28.10;58.80
49531;DHT22;38889;30.622;104.088;2022-07-23T04:03:03;28.10;58.80
49531;DHT22;38889;30.622;104.088;2022-07-23T04:05:30;28.10;58.80
49531;DHT22;38889;30.622;104.088;2022-07-23T04:07:57;28.10;58.80
49531;DHT22;38889;30.622;104.088;2022-07-23T04:10:24;28.00;58.30
49531;DHT22;38889;30.622;104.088;2022-07-23T04:12:52;28.10;57.60
49531;DHT22;38889;30.622;104.088;2022-07-23T04:15:19;28.00;57.10
49531;DHT22;38889;30.622;104.088;2022-07-23T04:17:46;28.00;57.00
49531;DHT22;38889;30.622;104.088;2022-07-23T04:20:13;27.90;55.80
49531;DHT22;38889;30.622;104.088;2022-07-23T04:23:00;27.90;55.90
49531;DHT22;38889;30.622;104.088;2022-07-23T04:25:28;27.90;56.30
49531;DHT22;38889;30.622;104.088;2022-07-23T04:27:55;27.90;55.20
49531;DHT22;38889;30.622;104.088;2022-07-23T04:30:22;27.90;55.30
49531;DHT22;38889;30.622;104.088;2022-07-23T04:32:49;27.80;54.70
49531;DHT22;38889;30.622;104.088;2022-07-23T04:35:17;27.80;54.80
49531;DHT22;38889;30.622;104.088;2022-07-23T04:37:44;27.80;54.70
49531;DHT22;38889;30.622;104.088;2022-07-23T04:40:12;27.80;54.50
49531;DHT22;38889;30.622;104.088;2022-07-23T04:42:40;27.80;54.20
49531;DHT22;38889;30.622;104.088;2022-07-23T04:45:07;27.80;54.30
49531;DHT22;38889;30.622;104.088;2022-07-23T04:47:35;27.80;54.10
49531;DHT22;38889;30.622;104.088;2022-07-23T04:50:02;27.80;54.40
49531;DHT22;38889;30.622;104.088;2022-07-23T04:52:29;27.80;54.10
49531;DHT22;38889;30.622;104.088;2022-07-23T04:54:56;27.70;53.70
49531;DHT22;38889;30.622;104.088;2022-07-23T04:57:24;27.70;53.00
49531;DHT22;38889;30.622;104.088;2022-07-23T04:59:51;27.70;53.70
49531;DHT22;38889;30.622;104.088;2022-07-23T05:02:18;27.70;53.50
49531;DHT22;38889;30.622;104.088;2022-07-23T05:04:46;27.70;53.50
49531;DHT22;38889;30.622;104.088;2022-07-23T05:07:13;27.70;52.90
49531;DHT22;38889;30.622;104.088;2022-07-23T05:09:40;27.70;52.80
49531;DHT22;38889;30.622;104.088;2022-07-23T05:12:08;27.70;52.80
49531;DHT22;38889;30.622;104.088;2022-07-23T05:14:35;27.70;53.00
49531;DHT22;38889;30.622;104.088;2022-07-23T05:17:02;27.60;52.70
49531;DHT22;38889;30.622;104.088;2022-07-23T05:19:30;27.60;52.60
49531;DHT22;38889;30.622;104.088;2022-07-23T05:21:57;27.60;53.00
49531;DHT22;38889;30.622;104.088;2022-07-23T05:24:25;27.60;53.20
49531;DHT22;38889;30.622;104.088;2022-07-23T05:26:52;27.70;53.10
49531;DHT22;38889;30.622;104.088;2022-07-23T05:29:20;27.70;53.00
49531;DHT22;38889;30.622;104.088;2022-07-23T05:31:47;27.70;53.50
49531;DHT22;38889;30.622;104.088;2022-07-23T05:34:14;27.70;53.90
49531;DHT22;38889;30.622;104.088;2022-07-23T05:36:42;27.70;54.20
49531;DHT22;38889;30.622;104.088;2022-07-23T05:39:09;27.70;54.40
49531;DHT22;38889;30.622;104.088;2022-07-23T05:41:36;27.70;54.60
49531;DHT22;38889;30.622;104.088;2022-07-23T05:44:04;27.70;54.70
49531;DHT22;38889;30.622;104.088;2022-07-23T05:46:31;27.70;54.80
49531;DHT22;38889;30.622;104.088;2022-07-23T05:48:58;27.80;55.00
49531;DHT22;38889;30.622;104.088;2022-07-23T05:51:26;27.80;55.10
49531;DHT22;38889;30.622;104.088;2022-07-23T05:53:53;27.80;55.20
49531;DHT22;38889;30.622;104.088;2022-07-23T05:56:21;27.80;55.20
49531;DHT22;38889;30.622;104.088;2022-07-23T05:58:48;27.80;55.30
49531;DHT22;38889;30.622;104.088;2022-07-23T06:01:15;27.80;55.30
49531;DHT22;38889;30.622;104.088;2022-07-23T06:03:43;27.80;56.10
49531;DHT22;38889;30.622;104.088;2022-07-23T06:06:10;27.80;55.50
49531;DHT22;38889;30.622;104.088;2022-07-23T06:08:38;27.80;55.50
49531;DHT22;38889;30.622;104.088;2022-07-23T06:11:06;27.80;55.50
49531;DHT22;38889;30.622;104.088;2022-07-23T06:13:33;27.90;55.60
49531;DHT22;38889;30.622;104.088;2022-07-23T06:16:00;27.90;55.70
49531;DHT22;38889;30.622;104.088;2022-07-23T06:18:28;27.90;55.70
49531;DHT22;38889;30.622;104.088;2022-07-23T06:20:55;27.90;55.80
49531;DHT22;38889;30.622;104.088;2022-07-23T06:23:22;27.90;55.80
49531;DHT22;38889;30.622;104.088;2022-07-23T06:25:49;27.90;55.80
49531;DHT22;38889;30.622;104.088;2022-07-23T06:28:17;27.90;55.80
49531;DHT22;38889;30.622;104.088;2022-07-23T06:30:45;27.90;55.80
49531;DHT22;38889;30.622;104.088;2022-07-23T06:33:12;27.90;55.80
49531;DHT22;38889;30.622;104.088;2022-07-23T06:35:40;27.90;55.90
49531;DHT22;38889;30.622;104.088;2022-07-23T06:38:10;27.90;56.00
49531;DHT22;38889;30.622;104.088;2022-07-23T06:40:39;27.90;56.00
49531;DHT22;38889;30.622;104.088;2022-07-23T06:43:06;28.00;56.00
49531;DHT22;38889;30.622;104.088;2022-07-23T06:45:34;28.00;55.90
49531;DHT22;38889;30.622;104.088;2022-07-23T06:48:01;28.00;56.00
49531;DHT22;38889;30.622;104.088;2022-07-23T06:50:29;28.00;56.00
49531;DHT22;38889;30.622;104.088;2022-07-23T06:52:57;28.00;56.00
49531;DHT22;38889;30.622;104.088;2022-07-23T06:55:24;28.00;56.00
49531;DHT22;38889;30.622;104.088;2022-07-23T06:57:51;28.00;56.00
49531;DHT22;38889;30.622;104.088;2022-07-23T07:00:19;28.00;56.10
49531;DHT22;38889;30.622;104.088;2022-07-23T07:02:46;28.10;56.10
49531;DHT22;38889;30.622;104.088;2022-07-23T07:05:14;28.10;56.10
49531;DHT22;38889;30.622;104.088;2022-07-23T07:07:41;28.10;56.20
49531;DHT22;38889;30.622;104.088;2022-07-23T07:10:08;28.10;56.20
49531;DHT22;38889;30.622;104.088;2022-07-23T07:12:36;28.10;56.20
49531;DHT22;38889;30.622;104.088;2022-07-23T07:15:04;28.10;56.20
49531;DHT22;38889;30.622;104.088;2022-07-23T07:17:31;28.10;56.20
49531;DHT22;38889;30.622;104.088;2022-07-23T07:19:59;28.10;56.20
49531;DHT22;38889;30.622;104.088;2022-07-23T07:22:26;28.10;56.20
49531;DHT22;38889;30.622;104.088;2022-07-23T07:24:54;28.10;56.20
49531;DHT22;38889;30.622;104.088;2022-07-23T07:27:21;28.10;56.20
49531;DHT22;38889;30.622;104.088;2022-07-23T07:29:49;28.10;56.20
49531;DHT22;38889;30.622;104.088;2022-07-23T07:32:16;28.10;56.20
49531;DHT22;38889;30.622;104.088;2022-07-23T07:34:44;28.10;56.20
49531;DHT22;38889;30.622;104.088;2022-07-23T07:37:11;28.20;56.30
49531;DHT22;38889;30.622;104.088;2022-07-23T07:39:39;28.20;56.30
49531;DHT22;38889;30.622;104.088;2022-07-23T07:42:06;28.10;56.20
49531;DHT22;38889;30.622;104.088;2022-07-23T07:44:34;28.20;56.30
49531;DHT22;38889;30.622;104.088;2022-07-23T07:47:01;28.10;56.30
49531;DHT22;38889;30.622;104.088;2022-07-23T07:49:29;28.20;56.30
49531;DHT22;38889;30.622;104.088;2022-07-23T07:51:56;28.20;56.30
49531;DHT22;38889;30.622;104.088;2022-07-23T07:54:23;28.20;56.30
49531;DHT22;38889;30.622;104.088;2022-07-23T07:56:51;28.20;56.30
49531;DHT22;38889;30.622;104.088;2022-07-23T07:59:18;28.20;56.30
49531;DHT22;38889;30.622;104.088;2022-07-23T08:01:46;28.20;56.30
49531;DHT22;38889;30.622;104.088;2022-07-23T08:04:13;28.20;56.90
49531;DHT22;38889;30.622;104.088;2022-07-23T08:06:40;28.20;56.30
49531;DHT22;38889;30.622;104.088;2022-07-23T08:09:08;28.20;56.20
49531;DHT22;38889;30.622;104.088;2022-07-23T08:11:35;28.20;56.20
49531;DHT22;38889;30.622;104.088;2022-07-23T08:14:03;28.20;56.20
49531;DHT22;38889;30.622;104.088;2022-07-23T08:16:30;28.20;56.20
49531;DHT22;38889;30.622;104.088;2022-07-23T08:18:57;28.20;56.20
49531;DHT22;38889;30.622;104.088;2022-07-23T08:21:25;28.20;56.20
49531;DHT22;38889;30.622;104.088;2022-07-23T08:23:53;28.20;56.20
49531;DHT22;38889;30.622;104.088;2022-07-23T08:26:20;28.20;56.20
49531;DHT22;38889;30.622;104.088;2022-07-23T08:28:47;28.20;56.20
49531;DHT22;38889;30.622;104.088;2022-07-23T08:31:15;28.30;56.30
49531;DHT22;38889;30.622;104.088;2022-07-23T08:33:44;28.30;56.30
49531;DHT22;38889;30.622;104.088;2022-07-23T08:36:11;28.30;56.20
49531;DHT22;38889;30.622;104.088;2022-07-23T08:38:38;28.30;56.20
49531;DHT22;38889;30.622;104.088;2022-07-23T08:41:08;28.30;56.20
49531;DHT22;38889;30.622;104.088;2022-07-23T08:43:35;28.30;56.20
49531;DHT22;38889;30.622;104.088;2022-07-23T08:46:03;28.20;56.10
49531;DHT22;38889;30.622;104.088;2022-07-23T08:48:33;28.30;56.10
49531;DHT22;38889;30.622;104.088;2022-07-23T08:51:02;28.30;56.10
49531;DHT22;38889;30.622;104.088;2022-07-23T08:53:32;28.30;56.10
49531;DHT22;38889;30.622;104.088;2022-07-23T08:56:01;28.30;56.10
49531;DHT22;38889;30.622;104.088;2022-07-23T08:58:30;28.30;56.10
49531;DHT22;38889;30.622;104.088;2022-07-23T09:00:57;28.30;56.10
49531;DHT22;38889;30.622;104.088;2022-07-23T09:03:30;28.30;56.10
49531;DHT22;38889;30.622;104.088;2022-07-23T09:05:59;28.30;56.10
49531;DHT22;38889;30.622;104.088;2022-07-23T09:08:47;28.30;56.10
49531;DHT22;38889;30.622;104.088;2022-07-23T09:11:18;28.30;56.10
49531;DHT22;38889;30.622;104.088;2022-07-23T09:13:50;28.30;56.10
49531;DHT22;38889;30.622;104.088;2022-07-23T09:18:53;28.30;56.20
49531;DHT22;38889;30.622;104.088;2022-07-23T09:21:24;28.30;56.10
49531;DHT22;38889;30.622;104.088;2022-07-23T09:24:26;28.30;56.10
49531;DHT22;38889;30.622;104.088;2022-07-23T09:26:48;28.30;56.10
49531;DHT22;38889;30.622;104.088;2022-07-23T09:31:52;28.30;56.20
49531;DHT22;38889;30.622;104.088;2022-07-23T09:34:24;28.30;56.20
49531;DHT22;38889;30.622;104.088;2022-07-23T09:36:54;28.30;56.20
49531;DHT22;38889;30.622;104.088;2022-07-23T09:39:31;28.30;56.20
49531;DHT22;38889;30.622;104.088;2022-07-23T09:42:19;28.30;56.20
49531;DHT22;38889;30.622;104.088;2022-07-23T09:44:54;28.40;56.30
49531;DHT22;38889;30.622;104.088;2022-07-23T09:47:23;28.40;56.30
49531;DHT22;38889;30.622;104.088;2022-07-23T09:52:47;28.40;56.30
49531;DHT22;38889;30.622;104.088;2022-07-23T09:55:15;28.40;56.30
49531;DHT22;38889;30.622;104.088;2022-07-23T09:57:45;28.30;56.30
49531;DHT22;38889;30.622;104.088;2022-07-23T10:00:13;28.40;56.30
49531;DHT22;38889;30.622;104.088;2022-07-23T10:02:40;28.40;56.30
49531;DHT22;38889;30.622;104.088;2022-07-23T10:05:08;28.30;56.20
49531;DHT22;38889;30.622;104.088;2022-07-23T10:07:40;28.40;56.30
49531;DHT22;38889;30.622;104.088;2022-07-23T10:10:08;28.40;56.30
49531;DHT22;38889;30.622;104.088;2022-07-23T10:12:36;28.40;56.30
49531;DHT22;38889;30.622;104.088;2022-07-23T10:15:22;28.40;56.30
49531;DHT22;38889;30.622;104.088;2022-07-23T10:17:49;28.40;56.30
49531;DHT22;38889;30.622;104.088;2022-07-23T10:20:17;28.40;56.30
49531;DHT22;38889;30.622;104.088;2022-07-23T10:28:41;28.40;56.30
49531;DHT22;38889;30.622;104.088;2022-07-23T10:31:19;28.40;56.40
49531;DHT22;38889;30.622;104.088;2022-07-23T10:39:33;28.40;56.40
49531;DHT22;38889;30.622;104.088;2022-07-23T10:42:14;28.40;56.40
49531;DHT22;38889;30.622;104.088;2022-07-23T10:45:02;28.40;56.40
49531;DHT22;38889;30.622;104.088;2022-07-23T10:47:49;28.40;56.40
49531;DHT22;38889;30.622;104.088;2022-07-23T10:55:39;28.40;56.40
49531;DHT22;38889;30.622;104.088;2022-07-23T10:58:07;28.40;56.40
49531;DHT22;38889;30.622;104.088;2022-07-23T11:00:35;28.40;56.40
49531;DHT22;38889;30.622;104.088;2022-07-23T11:03:32;28.40;56.40
49531;DHT22;38889;30.622;104.088;2022-07-23T11:06:03;28.40;56.40
49531;DHT22;38889;30.622;104.088;2022-07-23T11:08:30;28.40;56.40
49531;DHT22;38889;30.622;104.088;2022-07-23T11:13:31;28.40;56.50
49531;DHT22;38889;30.622;104.088;2022-07-23T11:34:43;28.50;56.50
49531;DHT22;38889;30.622;104.088;2022-07-23T11:39:58;28.50;56.60
49531;DHT22;38889;30.622;104.088;2022-07-23T11:42:25;28.50;56.50
49531;DHT22;38889;30.622;104.088;2022-07-23T11:44:52;28.50;56.50
49531;DHT22;38889;30.622;104.088;2022-07-23T11:47:25;28.50;56.60
49531;DHT22;38889;30.622;104.088;2022-07-23T11:49:56;28.50;56.60
49531;DHT22;38889;30.622;104.088;2022-07-23T11:52:24;28.50;56.60
49531;DHT22;38889;30.622;104.088;2022-07-23T11:55:00;28.50;56.60
49531;DHT22;38889;30.622;104.088;2022-07-23T11:57:30;28.50;56.60
49531;DHT22;38889;30.622;104.088;2022-07-23T12:00:16;28.50;56.60
49531;DHT22;38889;30.622;104.088;2022-07-23T12:02:47;28.50;56.60
49531;DHT22;38889;30.622;104.088;2022-07-23T12:05:17;28.50;56.70
49531;DHT22;38889;30.622;104.088;2022-07-23T12:07:46;28.50;56.70
49531;DHT22;38889;30.622;104.088;2022-07-23T12:10:24;28.50;56.70
49531;DHT22;38889;30.622;104.088;2022-07-23T12:12:58;28.50;56.80
49531;DHT22;38889;30.622;104.088;2022-07-23T12:15:41;28.50;56.80
49531;DHT22;38889;30.622;104.088;2022-07-23T12:18:11;28.60;56.90
49531;DHT22;38889;30.622;104.088;2022-07-23T12:20:41;28.60;56.90
49531;DHT22;38889;30.622;104.088;2022-07-23T12:23:11;28.60;56.90
49531;DHT22;38889;30.622;104.088;2022-07-23T12:25:43;28.60;57.00
49531;DHT22;38889;30.622;104.088;2022-07-23T12:33:21;28.60;57.00
49531;DHT22;38889;30.622;104.088;2022-07-23T12:35:50;28.50;57.00
49531;DHT22;38889;30.622;104.088;2022-07-23T12:38:20;28.60;57.20
49531;DHT22;38889;30.622;104.088;2022-07-23T12:40:53;28.50;57.10
49531;DHT22;38889;30.622;104.088;2022-07-23T12:46:02;28.60;57.30
49531;DHT22;38889;30.622;104.088;2022-07-23T12:48:32;28.50;57.20
49531;DHT22;38889;30.622;104.088;2022-07-23T12:51:19;28.60;57.40
49531;DHT22;38889;30.622;104.088;2022-07-23T12:53:48;28.60;57.50
49531;DHT22;38889;30.622;104.088;2022-07-23T12:56:21;28.60;57.60
49531;DHT22;38889;30.622;104.088;2022-07-23T12:58:56;28.60;57.60
49531;DHT22;38889;30.622;104.088;2022-07-23T13:01:25;28.60;57.50
49531;DHT22;38889;30.622;104.088;2022-07-23T13:04:10;28.60;57.60
49531;DHT22;38889;30.622;104.088;2022-07-23T13:06:55;28.60;57.60
49531;DHT22;38889;30.622;104.088;2022-07-23T13:09:31;28.60;57.60
49531;DHT22;38889;30.622;104.088;2022-07-23T13:11:59;28.60;57.60
49531;DHT22;38889;30.622;104.088;2022-07-23T13:14:27;28.60;57.70
49531;DHT22;38889;30.622;104.088;2022-07-23T13:16:55;28.60;57.70
49531;DHT22;38889;30.622;104.088;2022-07-23T13:19:23;28.60;57.80
49531;DHT22;38889;30.622;104.088;2022-07-23T13:21:50;28.60;57.80
49531;DHT22;38889;30.622;104.088;2022-07-23T13:24:18;28.60;57.80
49531;DHT22;38889;30.622;104.088;2022-07-23T13:26:45;28.60;57.80
49531;DHT22;38889;30.622;104.088;2022-07-23T13:29:13;28.60;57.80
49531;DHT22;38889;30.622;104.088;2022-07-23T13:31:40;28.60;57.80
49531;DHT22;38889;30.622;104.088;2022-07-23T13:34:08;28.60;57.80
49531;DHT22;38889;30.622;104.088;2022-07-23T13:36:36;28.60;57.80
49531;DHT22;38889;30.622;104.088;2022-07-23T13:39:03;28.60;57.80
49531;DHT22;38889;30.622;104.088;2022-07-23T13:41:31;28.70;57.90
49531;DHT22;38889;30.622;104.088;2022-07-23T13:43:58;28.60;57.90
49531;DHT22;38889;30.622;104.088;2022-07-23T13:46:26;28.60;57.90
49531;DHT22;38889;30.622;104.088;2022-07-23T13:48:53;28.60;58.00
49531;DHT22;38889;30.622;104.088;2022-07-23T13:51:20;28.70;58.10
49531;DHT22;38889;30.622;104.088;2022-07-23T13:53:47;28.60;58.00
49531;DHT22;38889;30.622;104.088;2022-07-23T13:56:15;28.60;58.00
49531;DHT22;38889;30.622;104.088;2022-07-23T13:58:43;28.70;58.20
49531;DHT22;38889;30.622;104.088;2022-07-23T14:01:11;28.70;58.20
49531;DHT22;38889;30.622;104.088;2022-07-23T14:03:38;28.70;58.20
49531;DHT22;38889;30.622;104.088;2022-07-23T14:06:05;28.70;58.20
49531;DHT22;38889;30.622;104.088;2022-07-23T14:08:33;28.60;58.20
49531;DHT22;38889;30.622;104.088;2022-07-23T14:11:01;28.70;58.20
49531;DHT22;38889;30.622;104.088;2022-07-23T14:13:28;28.70;58.20
49531;DHT22;38889;30.622;104.088;2022-07-23T14:15:56;28.70;58.60
49531;DHT22;38889;30.622;104.088;2022-07-23T14:18:23;28.70;58.80
49531;DHT22;38889;30.622;104.088;2022-07-23T14:20:51;28.70;59.10
49531;DHT22;38889;30.622;104.088;2022-07-23T14:23:18;28.60;59.20
49531;DHT22;38889;30.622;104.088;2022-07-23T14:25:46;28.60;59.20
49531;DHT22;38889;30.622;104.088;2022-07-23T14:28:13;28.60;59.10
49531;DHT22;38889;30.622;104.088;2022-07-23T14:30:41;28.70;59.10
49531;DHT22;38889;30.622;104.088;2022-07-23T14:33:10;28.60;59.20
49531;DHT22;38889;30.622;104.088;2022-07-23T14:35:39;28.60;59.10
49531;DHT22;38889;30.622;104.088;2022-07-23T14:38:07;28.70;59.20
49531;DHT22;38889;30.622;104.088;2022-07-23T14:40:34;28.60;59.20
49531;DHT22;38889;30.622;104.088;2022-07-23T14:43:03;28.70;59.30
49531;DHT22;38889;30.622;104.088;2022-07-23T14:45:30;28.60;59.50
49531;DHT22;38889;30.622;104.088;2022-07-23T14:48:07;28.70;59.40
49531;DHT22;38889;30.622;104.088;2022-07-23T14:50:35;28.60;59.40
49531;DHT22;38889;30.622;104.088;2022-07-23T14:53:02;28.60;59.50
49531;DHT22;38889;30.622;104.088;2022-07-23T14:55:31;28.70;59.60
49531;DHT22;38889;30.622;104.088;2022-07-23T14:58:18;28.70;59.70
49531;DHT22;38889;30.622;104.088;2022-07-23T15:00:46;28.70;59.80
49531;DHT22;38889;30.622;104.088;2022-07-23T15:03:13;28.70;59.80
49531;DHT22;38889;30.622;104.088;2022-07-23T15:05:41;28.70;59.90
49531;DHT22;38889;30.622;104.088;2022-07-23T15:08:09;28.70;59.90
49531;DHT22;38889;30.622;104.088;2022-07-23T15:10:36;28.70;60.00
49531;DHT22;38889;30.622;104.088;2022-07-23T15:13:04;28.70;60.00
49531;DHT22;38889;30.622;104.088;2022-07-23T15:15:31;29.00;60.30
49531;DHT22;38889;30.622;104.088;2022-07-23T15:17:59;28.70;60.10
49531;DHT22;38889;30.622;104.088;2022-07-23T15:20:26;28.70;60.00
49531;DHT22;38889;30.622;104.088;2022-07-23T15:22:54;28.70;60.10
49531;DHT22;38889;30.622;104.088;2022-07-23T15:25:21;28.70;60.20
49531;DHT22;38889;30.622;104.088;2022-07-23T15:27:49;28.70;60.30
49531;DHT22;38889;30.622;104.088;2022-07-23T15:30:17;28.80;60.30
49531;DHT22;38889;30.622;104.088;2022-07-23T15:32:44;28.80;61.10
49531;DHT22;38889;30.622;104.088;2022-07-23T15:35:12;28.70;60.30
49531;DHT22;38889;30.622;104.088;2022-07-23T15:37:41;28.70;60.30
49531;DHT22;38889;30.622;104.088;2022-07-23T15:40:09;28.70;60.40
49531;DHT22;38889;30.622;104.088;2022-07-23T15:42:36;28.70;60.40
49531;DHT22;38889;30.622;104.088;2022-07-23T15:45:04;28.80;60.40
49531;DHT22;38889;30.622;104.088;2022-07-23T15:47:32;28.70;60.40
49531;DHT22;38889;30.622;104.088;2022-07-23T15:49:59;28.70;60.60
49531;DHT22;38889;30.622;104.088;2022-07-23T15:52:28;28.70;60.40
49531;DHT22;38889;30.622;104.088;2022-07-23T15:54:55;28.70;60.40
49531;DHT22;38889;30.622;104.088;2022-07-23T15:57:23;28.70;60.00
49531;DHT22;38889;30.622;104.088;2022-07-23T15:59:50;28.60;59.00
49531;DHT22;38889;30.622;104.088;2022-07-23T16:02:18;28.60;58.20
49531;DHT22;38889;30.622;104.088;2022-07-23T16:04:45;28.60;57.60
49531;DHT22;38889;30.622;104.088;2022-07-23T16:07:13;28.60;57.20
49531;DHT22;38889;30.622;104.088;2022-07-23T16:09:40;28.50;56.60